Terminal Aerodrome Forecast
Issued by NWS Mt. Holly, NJ

Home | Current Version | Previous Version | Text Only | Print | Product List | Glossary On
Versions: 1 2 3 4 5 6 7 8 9 10 11 12 13 14 15 16 17 18 19 20 21 22 23 24 25
000
FTUS41 KPHI 231100
TAFPHL
TAF
KPHL 231135Z 2312/2418 20006KT P6SM SCT100
     FM240000 16006KT P6SM OVC050
     FM240300 15006KT 5SM -RA BR OVC020
     FM240600 12010KT 4SM -RA BR OVC010
     FM240800 15015G26KT 4SM -RA BR OVC007 WS020/16050KT=

USA.gov is the U.S. government's official web portal to all federal, state and local government web resources and services.